Time;durP1;ratioP1;P1;durP2;ratioP2;P2;SDS_P1;SDS_P2;PMS_P1;PMS_P2;Temp;Humidity;BMP_temperature;BMP_pressure;BME280_temperature;BME280_humidity;BME280_pressure;Samples;Min_cycle;Max_cycle;Signal;HPM_P1;HPM_P2
2022/02/09 00:09:08;;;;;;;0.40;0.20;;;2.40;99.90;;;;;;5110582;28;20399;-72
2022/02/09 00:11:48;;;;;;;0.40;0.20;;;2.40;99.90;;;;;;5109512;28;20619;-73
2022/02/09 01:43:23;;;;;;;0.40;0.20;;;1.90;99.90;;;;;;5112734;28;20372;-73
2022/02/09 01:56:00;;;;;;;0.40;0.20;;;1.90;99.90;;;;;;5112743;28;20420;-73
2022/02/09 01:58:26;;;;;;;0.40;0.20;;;1.80;99.90;;;;;;5111745;28;20831;-73
2022/02/09 02:00:52;;;;;;;0.40;0.20;;;1.80;99.90;;;;;;5112802;28;20455;-73
2022/02/09 02:03:18;;;;;;;0.40;0.20;;;1.80;99.90;;;;;;5111839;28;20381;-73
2022/02/09 02:05:44;;;;;;;0.40;0.20;;;1.70;99.90;;;;;;5112870;28;20465;-73
2022/02/09 02:08:11;;;;;;;2.30;0.70;;;1.80;99.90;;;;;;5112523;28;20376;-73
2022/02/09 02:13:58;;;;;;;0.40;0.20;;;1.70;99.90;;;;;;5112558;28;20455;-73
2022/02/09 02:16:32;;;;;;;0.40;0.20;;;1.70;99.90;;;;;;5111090;28;20812;-74
2022/02/09 02:19:06;;;;;;;0.70;0.70;;;1.80;99.90;;;;;;5094127;28;20963;-73
2022/02/09 02:30:09;;;;;;;0.40;0.40;;;1.90;99.90;;;;;;5111419;28;20437;-74
2022/02/09 02:46:34;;;;;;;0.40;0.30;;;2.20;99.90;;;;;;5111435;28;20379;-74
2022/02/09 04:09:26;;;;;;;0.40;0.20;;;1.50;99.90;;;;;;5005170;28;20488;-67
2022/02/09 05:22:30;;;;;;;0.80;0.70;;;1.90;99.90;;;;;;4993694;28;20423;-67
2022/02/09 05:30:19;;;;;;;0.40;0.20;;;1.90;99.90;;;;;;4980026;28;20867;-67
2022/02/09 05:32:47;;;;;;;0.40;0.20;;;1.80;99.90;;;;;;4993747;28;20397;-68
2022/02/09 05:35:15;;;;;;;0.40;0.30;;;1.90;99.90;;;;;;4993568;28;20397;-68
2022/02/09 05:37:41;;;;;;;0.40;0.25;;;1.70;99.90;;;;;;4993331;28;20390;-68
2022/02/09 05:40:07;;;;;;;0.40;0.20;;;1.60;99.90;;;;;;4993543;28;20418;-68
2022/02/09 05:42:33;;;;;;;0.80;0.80;;;1.50;99.90;;;;;;4992832;28;20847;-67
2022/02/09 05:45:06;;;;;;;0.40;0.30;;;1.50;99.90;;;;;;4993698;28;20427;-67
2022/02/09 05:56:06;;;;;;;0.80;0.80;;;1.50;99.90;;;;;;4988306;28;20431;-68
2022/02/09 05:58:07;;;;;;;0.40;0.20;;;1.40;99.90;;;;;;4970497;28;20809;-68
2022/02/09 06:00:32;;;;;;;0.40;0.20;;;1.40;99.90;;;;;;4986181;28;20403;-67
2022/02/09 06:03:01;;;;;;;0.40;0.20;;;1.30;99.90;;;;;;4972159;28;21031;-68
2022/02/09 06:05:27;;;;;;;0.40;0.40;;;1.30;99.90;;;;;;4989346;28;20392;-69
2022/02/09 06:07:53;;;;;;;0.40;0.20;;;1.40;99.90;;;;;;4982227;28;20837;-69
2022/02/09 06:10:23;;;;;;;0.40;0.30;;;1.40;99.90;;;;;;4989636;28;20480;-69
2022/02/09 06:12:55;;;;;;;0.40;0.20;;;1.50;99.90;;;;;;4981480;28;20389;-69
2022/02/09 06:15:59;;;;;;;0.40;0.20;;;1.50;99.90;;;;;;4973836;28;20454;-69
2022/02/09 06:21:03;;;;;;;0.40;0.20;;;1.80;99.90;;;;;;4972637;28;20402;-69
2022/02/09 06:23:29;;;;;;;0.40;0.20;;;1.40;99.90;;;;;;4973483;28;20483;-68
2022/02/09 06:25:55;;;;;;;0.60;0.60;;;1.40;99.90;;;;;;4972701;28;20396;-68
2022/02/09 06:28:21;;;;;;;0.40;0.20;;;1.40;99.90;;;;;;4973669;28;20484;-68
2022/02/09 06:30:47;;;;;;;0.40;0.20;;;1.40;99.90;;;;;;4986775;28;20473;-68
2022/02/09 06:33:14;;;;;;;0.40;0.20;;;1.40;99.90;;;;;;4991617;28;20394;-69
2022/02/09 06:35:39;;;;;;;0.40;0.20;;;1.40;99.90;;;;;;4991794;28;20422;-68
2022/02/09 06:38:05;;;;;;;0.40;0.20;;;1.50;99.90;;;;;;4991586;28;20418;-69
2022/02/09 06:40:31;;;;;;;0.40;0.20;;;1.50;99.90;;;;;;4991803;28;20948;-69
2022/02/09 06:42:57;;;;;;;0.40;0.20;;;1.50;99.90;;;;;;4991849;28;20425;-69
2022/02/09 06:45:37;;;;;;;0.40;0.20;;;1.50;99.90;;;;;;4981726;28;20407;-69
2022/02/09 06:48:09;;;;;;;0.70;0.68;;;1.40;99.90;;;;;;4992109;28;20393;-69
2022/02/09 06:50:39;;;;;;;0.40;0.20;;;1.40;99.90;;;;;;4992793;28;20423;-69
2022/02/09 06:55:58;;;;;;;0.40;0.20;;;1.50;99.90;;;;;;4990957;28;20432;-70
2022/02/09 07:01:05;;;;;;;0.40;0.20;;;1.70;99.90;;;;;;4976177;28;20460;-69
2022/02/09 07:03:31;;;;;;;0.40;0.20;;;1.70;99.90;;;;;;4990494;28;20383;-69
2022/02/09 07:05:56;;;;;;;0.40;0.20;;;1.70;99.90;;;;;;4977536;28;20506;-69
2022/02/09 07:08:22;;;;;;;0.40;0.20;;;1.70;99.90;;;;;;4990494;28;20440;-68
2022/02/09 07:10:48;;;;;;;0.40;0.20;;;1.60;99.90;;;;;;4991252;28;20744;-69
2022/02/09 07:13:14;;;;;;;0.40;0.20;;;1.70;99.90;;;;;;4991389;28;20387;-69
2022/02/09 07:15:44;;;;;;;0.40;0.20;;;1.70;99.90;;;;;;4991228;28;20406;-69
2022/02/09 07:18:13;;;;;;;0.40;0.20;;;1.70;99.90;;;;;;4991162;28;20395;-69
2022/02/09 07:26:42;;;;;;;0.40;0.40;;;1.90;99.90;;;;;;4990620;28;20386;-69
2022/02/09 07:28:36;;;;;;;0.40;0.23;;;1.90;99.90;;;;;;4983982;28;20422;-69
2022/02/09 07:31:03;;;;;;;1.20;0.60;;;2.10;99.90;;;;;;4991474;28;20462;-69
2022/02/09 07:33:29;;;;;;;0.40;0.20;;;2.10;99.90;;;;;;4992018;28;20883;-69
2022/02/09 07:35:55;;;;;;;0.60;0.60;;;2.40;99.90;;;;;;4990890;28;20390;-69
2022/02/09 07:38:21;;;;;;;1.60;0.60;;;2.50;99.90;;;;;;4991489;28;20418;-70
2022/02/09 07:40:47;;;;;;;0.40;0.20;;;2.50;99.90;;;;;;4973445;28;20410;-69
2022/02/09 07:43:23;;;;;;;0.43;0.32;;;2.50;99.90;;;;;;4991332;28;20406;-69
2022/02/09 07:51:39;;;;;;;0.40;0.20;;;2.60;99.90;;;;;;4990724;28;20398;-69
2022/02/09 07:56:22;;;;;;;0.40;0.20;;;2.80;99.90;;;;;;4991480;28;20393;-67
2022/02/09 07:58:48;;;;;;;0.40;0.20;;;2.80;99.90;;;;;;4990877;28;20410;-67
2022/02/09 08:01:14;;;;;;;0.40;0.20;;;2.80;99.90;;;;;;4990911;28;20390;-67
2022/02/09 08:03:41;;;;;;;0.40;0.20;;;2.90;99.90;;;;;;4990578;28;20395;-69
2022/02/09 08:06:08;;;;;;;0.40;0.20;;;3.00;99.90;;;;;;4990241;28;20883;-67
2022/02/09 08:08:36;;;;;;;0.40;0.30;;;3.10;99.90;;;;;;4991192;28;20386;-69
2022/02/09 08:11:19;;;;;;;0.40;0.20;;;3.10;99.90;;;;;;4991479;28;20913;-68
2022/02/09 08:27:19;;;;;;;0.40;0.20;;;3.40;99.90;;;;;;4991298;28;20465;-68
2022/02/09 08:32:54;;;;;;;0.40;0.20;;;3.30;99.90;;;;;;4957892;28;20455;-69
2022/02/09 08:35:20;;;;;;;0.40;0.20;;;3.20;99.90;;;;;;4990392;28;20864;-68
2022/02/09 08:37:46;;;;;;;0.50;0.50;;;3.30;99.90;;;;;;4992991;28;20393;-69
2022/02/09 08:40:17;;;;;;;0.40;0.20;;;3.40;99.90;;;;;;4994489;28;20434;-69
2022/02/09 08:42:43;;;;;;;0.40;0.20;;;3.50;99.90;;;;;;4993961;28;20851;-68
2022/02/09 08:45:10;;;;;;;0.40;0.30;;;3.60;99.90;;;;;;4994492;28;20389;-68
2022/02/09 08:47:36;;;;;;;0.60;0.60;;;3.50;99.90;;;;;;4993488;28;20387;-67
2022/02/09 08:50:06;;;;;;;0.40;0.20;;;3.70;99.90;;;;;;4994154;28;20390;-68
2022/02/09 08:52:32;;;;;;;0.40;0.20;;;3.80;99.90;;;;;;4993735;28;20391;-68
2022/02/09 08:54:58;;;;;;;1.00;1.00;;;3.90;99.90;;;;;;4976278;28;20398;-68
2022/02/09 08:57:25;;;;;;;0.40;0.20;;;3.90;99.90;;;;;;4994560;28;20387;-67
2022/02/09 08:59:52;;;;;;;0.40;0.20;;;4.00;99.90;;;;;;4993385;28;20573;-67
2022/02/09 09:02:21;;;;;;;0.60;0.60;;;4.20;99.90;;;;;;4977012;28;20677;-67
2022/02/09 09:04:56;;;;;;;0.40;0.20;;;4.20;99.90;;;;;;4993519;28;20738;-69
2022/02/09 09:07:32;;;;;;;0.40;0.20;;;4.20;99.90;;;;;;4994630;28;20383;-68
2022/02/09 09:10:09;;;;;;;0.40;0.20;;;4.30;99.90;;;;;;4993164;28;20500;-68
2022/02/09 10:01:54;;;;;;;0.57;0.57;;;5.50;99.90;;;;;;4992559;28;20405;-69
2022/02/09 10:04:44;;;;;;;0.40;0.30;;;5.60;99.90;;;;;;4993279;28;20393;-69
2022/02/09 10:33:04;;;;;;;0.40;0.30;;;6.60;99.90;;;;;;4992029;28;20425;-68
2022/02/09 10:35:39;;;;;;;0.40;0.30;;;6.80;99.90;;;;;;4992279;28;20534;-69
2022/02/09 10:38:28;;;;;;;0.40;0.40;;;6.80;99.90;;;;;;4991808;28;20391;-68
2022/02/09 10:41:07;;;;;;;0.40;0.20;;;7.00;99.90;;;;;;4992585;28;20446;-69
2022/02/09 10:43:35;;;;;;;0.90;0.90;;;7.10;99.90;;;;;;4992618;28;20426;-69
2022/02/09 10:46:12;;;;;;;0.40;0.22;;;7.20;99.90;;;;;;4991938;28;20390;-68
2022/02/09 10:48:56;;;;;;;1.60;0.70;;;7.30;99.90;;;;;;4992241;28;20725;-69
2022/02/09 10:54:05;;;;;;;0.40;0.20;;;7.50;99.90;;;;;;4992372;28;20399;-69
2022/02/09 10:56:33;;;;;;;0.80;0.80;;;7.70;99.90;;;;;;4991339;28;20398;-68
2022/02/09 10:59:00;;;;;;;0.40;0.20;;;7.80;99.90;;;;;;4974502;28;20761;-68
2022/02/09 11:01:27;;;;;;;0.50;0.50;;;8.00;99.90;;;;;;4973293;28;20399;-68
2022/02/09 11:03:58;;;;;;;0.40;0.20;;;8.00;99.90;;;;;;4991720;28;20783;-68
2022/02/09 11:06:30;;;;;;;0.40;0.30;;;8.30;99.90;;;;;;4991648;28;20477;-69
2022/02/09 11:08:56;;;;;;;1.17;1.08;;;8.40;99.90;;;;;;4991998;28;20383;-68
2022/02/09 11:11:23;;;;;;;0.40;0.20;;;8.60;99.90;;;;;;4991964;28;20422;-69
2022/02/09 11:13:50;;;;;;;0.40;0.20;;;8.80;99.90;;;;;;4990322;28;20398;-68
2022/02/09 11:16:17;;;;;;;0.40;0.20;;;9.00;99.90;;;;;;4991689;28;20441;-68
2022/02/09 11:18:47;;;;;;;0.40;0.30;;;9.10;99.90;;;;;;4990924;28;20506;-68
2022/02/09 11:21:14;;;;;;;0.40;0.20;;;9.40;99.90;;;;;;4991764;28;20386;-68
2022/02/09 11:23:42;;;;;;;0.40;0.30;;;9.50;99.90;;;;;;4991740;28;20477;-68
2022/02/09 11:26:33;;;;;;;0.40;0.20;;;9.90;99.90;;;;;;4991317;28;20474;-68
2022/02/09 11:34:53;;;;;;;0.40;0.30;;;11.00;96.40;;;;;;4991814;28;20393;-69
2022/02/09 11:37:33;;;;;;;0.40;0.20;;;11.50;94.50;;;;;;4991348;28;20394;-69
2022/02/09 11:49:04;;;;;;;0.40;0.30;;;13.00;87.00;;;;;;4989879;28;20393;-69
2022/02/09 12:11:33;;;;;;;0.40;0.30;;;15.50;75.60;;;;;;4991585;28;20438;-69
2022/02/09 12:16:35;;;;;;;0.40;0.30;;;15.10;75.50;;;;;;4994626;28;20391;-68
2022/02/09 12:19:05;;;;;;;0.40;0.30;;;14.60;76.10;;;;;;4994779;28;20410;-68
2022/02/09 12:24:29;;;;;;;0.40;0.30;;;15.80;74.40;;;;;;4994796;28;20733;-69
2022/02/09 12:27:07;;;;;;;0.40;0.30;;;15.20;70.40;;;;;;4994070;28;20394;-68
2022/02/09 12:29:38;;;;;;;0.40;0.30;;;16.00;72.40;;;;;;4994714;28;20413;-68
2022/02/09 12:32:16;;;;;;;0.40;0.30;;;15.00;68.30;;;;;;4994957;28;20429;-69
2022/02/09 12:35:09;;;;;;;0.40;0.30;;;16.00;71.70;;;;;;4977037;28;20896;-69
2022/02/09 12:37:38;;;;;;;0.40;0.30;;;15.30;69.50;;;;;;4994781;28;20414;-68
2022/02/09 12:40:14;;;;;;;0.40;0.40;;;15.40;70.80;;;;;;4976237;28;20957;-68
2022/02/09 12:42:42;;;;;;;0.40;0.20;;;16.40;68.50;;;;;;4977190;28;20429;-69
2022/02/09 12:45:16;;;;;;;0.40;0.30;;;16.10;70.20;;;;;;4976607;28;20543;-67
2022/02/09 12:47:45;;;;;;;0.40;0.20;;;16.30;66.90;;;;;;4994806;28;20433;-68
2022/02/09 12:50:14;;;;;;;0.40;0.20;;;16.10;68.70;;;;;;4976207;28;21101;-68
2022/02/09 12:52:43;;;;;;;0.40;0.30;;;17.50;65.00;;;;;;4994238;28;20879;-68
2022/02/09 12:55:15;;;;;;;0.40;0.30;;;17.80;62.00;;;;;;4993651;28;20433;-68
2022/02/09 12:57:46;;;;;;;0.40;0.23;;;17.80;62.90;;;;;;4994257;28;20394;-68
2022/02/09 13:00:25;;;;;;;0.40;0.30;;;16.80;61.80;;;;;;4993486;28;20894;-68
2022/02/09 13:02:53;;;;;;;0.40;0.30;;;17.30;58.60;;;;;;4994276;28;20783;-68
2022/02/09 13:05:19;;;;;;;0.40;0.20;;;17.80;58.30;;;;;;4993457;28;20383;-68
2022/02/09 13:07:58;;;;;;;0.40;0.20;;;18.00;59.00;;;;;;4994185;28;20474;-68
2022/02/09 13:10:33;;;;;;;0.40;0.20;;;18.10;57.00;;;;;;4993320;28;20438;-68
2022/02/09 13:13:24;;;;;;;0.40;0.30;;;18.30;56.30;;;;;;4977582;28;20390;-69
2022/02/09 13:15:54;;;;;;;0.40;0.30;;;17.40;57.00;;;;;;4993540;28;20405;-68
2022/02/09 13:19:02;;;;;;;0.40;0.20;;;18.00;56.60;;;;;;4992992;28;20429;-68
2022/02/09 14:55:48;;;;;;;0.40;0.20;;;17.30;45.70;;;;;;4991403;28;20395;-68
2022/02/09 14:58:22;;;;;;;0.40;0.20;;;16.50;46.50;;;;;;4992203;28;20779;-69
2022/02/09 15:01:11;;;;;;;0.40;0.20;;;15.60;47.00;;;;;;4991239;28;20394;-69
2022/02/09 15:08:49;;;;;;;0.40;0.20;;;14.60;48.10;;;;;;4974991;28;20391;-69
2022/02/09 15:12:01;;;;;;;0.40;0.30;;;14.50;48.70;;;;;;4992045;28;20872;-69
2022/02/09 15:14:19;;;;;;;0.40;0.40;;;14.40;48.40;;;;;;4988407;28;20401;-69
2022/02/09 15:16:59;;;;;;;0.40;0.20;;;14.30;48.20;;;;;;4991172;28;20448;-68
2022/02/09 15:19:41;;;;;;;0.40;0.30;;;14.30;48.70;;;;;;4991582;28;20390;-69
2022/02/09 15:22:11;;;;;;;0.40;0.30;;;14.10;48.80;;;;;;4991245;28;20390;-69
2022/02/09 15:24:47;;;;;;;0.40;0.30;;;14.10;48.90;;;;;;4991568;28;20387;-70
2022/02/09 15:27:18;;;;;;;0.40;0.30;;;14.10;49.10;;;;;;4991400;28;20390;-68
2022/02/09 15:29:45;;;;;;;0.40;0.20;;;14.00;48.80;;;;;;4991675;28;20414;-69
2022/02/09 15:32:31;;;;;;;0.40;0.20;;;14.10;48.80;;;;;;4990907;28;20406;-69
2022/02/09 15:35:02;;;;;;;0.40;0.20;;;14.10;48.70;;;;;;4991214;28;20407;-69
2022/02/09 15:37:38;;;;;;;0.40;0.30;;;14.10;49.10;;;;;;4991467;28;20401;-70
2022/02/09 15:40:12;;;;;;;0.40;0.20;;;15.40;47.50;;;;;;4990805;28;20402;-68
2022/02/09 15:56:23;;;;;;;0.40;0.20;;;13.90;48.60;;;;;;4991803;28;20478;-69
2022/02/09 16:09:54;;;;;;;0.80;0.80;;;13.20;50.20;;;;;;4986931;28;20437;-68
2022/02/09 16:23:12;;;;;;;0.70;0.70;;;12.70;51.60;;;;;;4990296;28;20469;-68
2022/02/09 16:44:53;;;;;;;0.40;0.30;;;12.10;53.50;;;;;;4965718;28;20406;-68
2022/02/09 16:49:55;;;;;;;0.40;0.20;;;12.20;52.30;;;;;;4988954;28;20414;-68
2022/02/09 16:52:27;;;;;;;0.40;0.20;;;12.10;52.40;;;;;;4983253;28;20822;-68
2022/02/09 16:55:23;;;;;;;0.40;0.20;;;11.90;53.70;;;;;;4980985;28;20417;-69
2022/02/09 17:19:16;;;;;;;0.40;0.20;;;10.10;66.20;;;;;;4985918;28;20419;-70
2022/02/09 17:21:42;;;;;;;0.70;0.70;;;9.70;71.90;;;;;;4975356;28;20861;-69
2022/02/09 17:24:07;;;;;;;0.40;0.20;;;9.30;75.50;;;;;;4974669;28;20935;-68
2022/02/09 17:26:33;;;;;;;0.40;0.30;;;9.10;79.20;;;;;;4973613;28;20597;-69
2022/02/09 17:29:05;;;;;;;0.40;0.20;;;8.90;81.50;;;;;;4974545;28;20428;-68
2022/02/09 17:31:45;;;;;;;0.40;0.30;;;8.80;83.90;;;;;;4973725;28;21262;-68
2022/02/09 17:58:20;;;;;;;0.40;0.40;;;7.50;96.50;;;;;;4993190;28;20395;-68
2022/02/09 18:00:48;;;;;;;0.40;0.20;;;7.40;96.80;;;;;;4992467;28;20493;-68
2022/02/09 18:03:15;;;;;;;0.40;0.20;;;7.30;97.60;;;;;;4993520;28;20957;-68
2022/02/09 18:05:47;;;;;;;0.40;0.40;;;7.20;98.10;;;;;;4973472;28;20399;-68
2022/02/09 18:08:36;;;;;;;0.40;0.20;;;7.10;98.90;;;;;;4992432;28;20755;-68
2022/02/09 18:13:56;;;;;;;0.40;0.30;;;7.00;99.60;;;;;;4992501;28;20454;-69
2022/02/09 18:29:45;;;;;;;0.40;0.30;;;6.70;99.90;;;;;;4983904;28;20414;-69
2022/02/09 18:42:56;;;;;;;0.40;0.20;;;6.50;99.90;;;;;;4972776;28;20403;-68
2022/02/09 19:04:38;;;;;;;0.40;0.20;;;5.90;99.90;;;;;;4972856;28;20483;-68
2022/02/09 19:15:43;;;;;;;0.40;0.20;;;5.70;99.90;;;;;;4971479;28;20383;-69
2022/02/09 19:18:34;;;;;;;0.40;0.20;;;5.70;99.90;;;;;;4971059;28;20396;-68
2022/02/09 19:26:50;;;;;;;0.40;0.20;;;5.40;99.90;;;;;;4971365;28;20445;-69
2022/02/09 19:32:18;;;;;;;0.40;0.20;;;5.30;99.90;;;;;;4972376;28;20487;-69
2022/02/09 19:46:16;;;;;;;1.50;1.40;;;5.00;99.90;;;;;;4950512;29;20988;-69
2022/02/09 19:48:51;;;;;;;0.40;0.20;;;4.90;99.90;;;;;;4988902;28;20432;-69
2022/02/09 19:57:04;;;;;;;0.40;0.20;;;4.80;99.90;;;;;;4963400;28;20393;-70
2022/02/09 19:59:32;;;;;;;0.40;0.20;;;4.60;99.90;;;;;;4990502;28;20390;-69
2022/02/09 20:01:59;;;;;;;0.40;0.20;;;4.70;99.90;;;;;;4991422;28;20378;-69
2022/02/09 20:04:25;;;;;;;0.50;0.50;;;4.70;99.90;;;;;;4990705;28;20398;-70
2022/02/09 20:06:51;;;;;;;0.40;0.30;;;4.70;99.90;;;;;;4973234;28;20394;-69
2022/02/09 20:09:18;;;;;;;0.50;0.50;;;4.60;99.90;;;;;;4990439;28;20954;-69
2022/02/09 20:11:44;;;;;;;0.60;0.52;;;4.60;99.90;;;;;;4990720;28;20418;-69
2022/02/09 20:14:12;;;;;;;0.40;0.40;;;4.60;99.90;;;;;;4990845;28;20391;-69
2022/02/09 20:16:39;;;;;;;0.40;0.20;;;4.50;99.90;;;;;;4972896;28;20449;-69
2022/02/09 20:19:05;;;;;;;0.40;0.30;;;4.50;99.90;;;;;;4991134;28;20391;-69
2022/02/09 20:21:31;;;;;;;1.20;0.80;;;4.50;99.90;;;;;;4990495;28;20440;-69
2022/02/09 20:24:00;;;;;;;1.00;0.90;;;4.40;99.90;;;;;;4991112;28;20387;-70
2022/02/09 20:26:27;;;;;;;0.50;0.50;;;4.30;99.90;;;;;;4990770;28;20490;-69
2022/02/09 20:28:58;;;;;;;0.80;0.60;;;4.30;99.90;;;;;;4990099;28;21027;-69
2022/02/09 20:31:32;;;;;;;0.40;0.20;;;4.30;99.90;;;;;;4991071;28;20402;-69
2022/02/09 20:34:09;;;;;;;0.40;0.28;;;4.20;99.90;;;;;;4994481;28;20507;-68
2022/02/09 20:36:37;;;;;;;0.93;0.85;;;4.20;99.90;;;;;;4977105;28;20472;-68
2022/02/09 20:39:05;;;;;;;0.40;0.30;;;4.10;99.90;;;;;;4994486;28;20393;-69
2022/02/09 20:41:33;;;;;;;0.70;0.70;;;4.10;99.90;;;;;;4977128;28;20751;-69
2022/02/09 20:44:18;;;;;;;0.40;0.20;;;4.10;99.90;;;;;;4993999;28;20387;-70
2022/02/09 20:46:44;;;;;;;0.40;0.20;;;4.10;99.90;;;;;;4993865;28;20382;-69
2022/02/09 20:49:10;;;;;;;0.40;0.20;;;4.10;99.90;;;;;;4994818;28;20441;-70
2022/02/09 20:51:35;;;;;;;0.40;0.20;;;4.10;99.90;;;;;;4994178;28;20401;-71
2022/02/09 20:54:01;;;;;;;0.40;0.20;;;4.10;99.90;;;;;;4975856;28;20627;-70
2022/02/09 20:56:27;;;;;;;0.40;0.20;;;4.00;99.90;;;;;;4994321;28;20378;-70
2022/02/09 20:58:59;;;;;;;0.40;0.20;;;4.10;99.90;;;;;;4993813;28;20402;-69
2022/02/09 21:04:24;;;;;;;0.40;0.40;;;4.00;99.90;;;;;;4975409;28;20411;-69
2022/02/09 21:09:36;;;;;;;0.40;0.20;;;4.00;99.90;;;;;;4987254;28;20416;-69
2022/02/09 21:25:52;;;;;;;0.73;0.73;;;3.70;99.90;;;;;;4988094;28;20398;-69
2022/02/09 21:51:37;;;;;;;0.70;0.70;;;3.70;99.90;;;;;;4992502;28;20442;-69
2022/02/09 21:55:43;;;;;;;0.40;0.20;;;3.70;99.90;;;;;;4988059;28;21031;-68
2022/02/09 21:58:22;;;;;;;0.40;0.20;;;3.70;99.90;;;;;;4988447;28;20391;-70
2022/02/09 22:06:25;;;;;;;0.40;0.20;;;3.70;99.90;;;;;;4991315;28;20566;-69
2022/02/09 22:27:37;;;;;;;0.40;0.30;;;3.60;99.90;;;;;;4991752;28;20381;-69
2022/02/09 22:54:33;;;;;;;0.40;0.20;;;3.20;99.90;;;;;;4991837;28;20386;-69
2022/02/09 22:56:59;;;;;;;0.40;0.20;;;3.20;99.90;;;;;;4990936;28;20496;-69
2022/02/09 23:00:02;;;;;;;0.40;0.20;;;3.30;99.90;;;;;;4992039;28;20426;-69
2022/02/09 23:02:31;;;;;;;0.40;0.20;;;3.30;99.90;;;;;;4988036;28;20492;-70
2022/02/09 23:05:27;;;;;;;0.40;0.20;;;3.30;99.90;;;;;;4991257;28;20453;-69
2022/02/09 23:08:07;;;;;;;0.40;0.20;;;3.30;99.90;;;;;;4991774;28;20402;-69
2022/02/09 23:13:10;;;;;;;0.40;0.20;;;3.20;99.90;;;;;;4991192;28;20752;-69
2022/02/09 23:16:04;;;;;;;0.40;0.20;;;3.20;99.90;;;;;;4991678;28;20469;-70
